createdAt,value
2022-08-07T00:02:39.923Z,3.08
2022-08-07T00:05:04.177Z,2.08
2022-08-07T00:07:40.396Z,3.05
2022-08-07T00:10:27.078Z,1.27
2022-08-07T00:13:02.073Z,2.10
2022-08-07T00:15:46.730Z,2.38
2022-08-07T00:18:24.522Z,2.13
2022-08-07T00:20:54.004Z,2.08
2022-08-07T00:23:22.092Z,2.00
2022-08-07T00:25:58.856Z,2.13
2022-08-07T00:28:33.225Z,1.90
2022-08-07T00:31:06.468Z,2.78
2022-08-07T00:33:41.977Z,1.63
2022-08-07T00:36:10.505Z,2.85
2022-08-07T00:38:40.249Z,1.80
2022-08-07T00:41:10.016Z,2.58
2022-08-07T00:44:02.096Z,2.65
2022-08-07T00:46:33.057Z,2.85
2022-08-07T00:49:02.984Z,2.78
2022-08-07T00:51:56.769Z,4.05
2022-08-07T00:54:20.114Z,2.13
2022-08-07T00:56:49.716Z,1.90
2022-08-07T00:59:35.292Z,2.67
2022-08-07T01:02:06.311Z,1.83
2022-08-07T01:04:43.197Z,1.85
2022-08-07T01:07:11.915Z,2.42
2022-08-07T01:10:04.332Z,2.05
2022-08-07T01:12:30.956Z,2.92
2022-08-07T01:15:03.857Z,2.53
2022-08-07T01:17:33.553Z,3.08
2022-08-07T01:20:06.527Z,2.95
2022-08-07T01:22:38.058Z,2.10
2022-08-07T01:25:54.103Z,3.45
2022-08-07T01:28:06.007Z,2.88
2022-08-07T01:30:36.794Z,2.67
2022-08-07T01:33:07.290Z,2.63
2022-08-07T01:35:53.647Z,3.22
2022-08-07T01:38:26.096Z,2.35
2022-08-07T01:41:02.357Z,2.63
2022-08-07T01:43:38.067Z,2.38
2022-08-07T01:46:12.114Z,2.97
2022-08-07T01:48:46.692Z,2.40
2022-08-07T01:52:02.502Z,2.92
2022-08-07T01:54:33.163Z,2.35
2022-08-07T01:57:20.685Z,1.98
2022-08-07T01:59:58.474Z,2.67
2022-08-07T02:03:11.409Z,2.30
2022-08-07T02:05:43.313Z,2.63
2022-08-07T02:08:20.351Z,3.58
2022-08-07T02:10:58.113Z,3.25
2022-08-07T02:13:57.260Z,2.33
2022-08-07T02:16:28.715Z,2.38
2022-08-07T02:19:05.776Z,2.60
2022-08-07T02:21:56.356Z,2.42
2022-08-07T02:24:29.491Z,2.50
2022-08-07T02:27:01.462Z,2.80
2022-08-07T02:29:33.029Z,2.47
2022-08-07T02:32:06.575Z,2.95
2022-08-07T02:34:51.004Z,3.28
2022-08-07T02:37:24.497Z,2.92
2022-08-07T02:40:02.225Z,3.40
2022-08-07T02:42:45.244Z,2.35
2022-08-07T02:45:58.046Z,2.63
2022-08-07T02:48:04.354Z,3.00
2022-08-07T02:50:43.628Z,2.10
2022-08-07T02:53:13.921Z,1.98
2022-08-07T02:56:03.710Z,2.88
2022-08-07T03:01:35.017Z,2.53
2022-08-07T03:04:12.506Z,1.88
2022-08-07T03:06:44.727Z,1.73
2022-08-07T03:09:41.815Z,2.08
2022-08-07T03:12:05.215Z,2.33
2022-08-07T03:14:37.954Z,2.80
2022-08-07T03:17:09.117Z,2.03
2022-08-07T03:19:38.742Z,2.55
2022-08-07T03:22:18.756Z,2.20
2022-08-07T03:24:48.514Z,2.25
2022-08-07T03:27:29.896Z,2.05
2022-08-07T03:30:05.192Z,2.42
2022-08-07T03:32:39.505Z,2.22
2022-08-07T03:35:26.130Z,2.80
2022-08-07T03:37:58.663Z,2.42
2022-08-07T03:40:36.124Z,1.83
2022-08-07T03:43:14.478Z,1.77
2022-08-07T03:45:49.049Z,2.35
2022-08-07T03:48:22.897Z,2.67
2022-08-07T03:50:57.502Z,1.95
2022-08-07T03:54:01.983Z,2.58
2022-08-07T03:56:33.073Z,2.00
2022-08-07T03:59:08.678Z,1.67
2022-08-07T04:01:46.182Z,2.17
2022-08-07T04:04:18.232Z,2.05
2022-08-07T04:06:51.768Z,1.75
2022-08-07T04:09:23.492Z,1.98
2022-08-07T04:12:24.813Z,1.90
2022-08-07T04:14:49.016Z,2.80
2022-08-07T04:17:22.004Z,2.33
2022-08-07T04:19:57.353Z,2.20
2022-08-07T04:22:29.621Z,2.20
2022-08-07T04:25:03.948Z,1.75
2022-08-07T04:27:44.198Z,2.70
2022-08-07T04:30:21.265Z,2.08
2022-08-07T04:33:15.505Z,1.60
2022-08-07T04:35:50.496Z,2.17
2022-08-07T04:38:25.773Z,2.78
2022-08-07T04:40:56.762Z,3.03
2022-08-07T04:44:11.964Z,2.65
2022-08-07T04:46:59.311Z,2.05
2022-08-07T04:49:38.417Z,2.40
2022-08-07T04:52:15.639Z,2.45
2022-08-07T04:54:58.101Z,1.98
2022-08-07T04:58:16.665Z,3.17
2022-08-07T05:00:31.048Z,3.20
2022-08-07T05:03:31.137Z,2.83
2022-08-07T05:06:19.649Z,3.05
2022-08-07T05:09:02.092Z,2.80
2022-08-07T05:11:57.158Z,2.90
2022-08-07T05:14:53.406Z,2.47
2022-08-07T05:20:14.732Z,1.67
2022-08-07T05:22:50.491Z,2.30
2022-08-07T05:25:35.551Z,2.33
2022-08-07T05:28:20.159Z,1.95
2022-08-07T05:30:50.752Z,2.55
2022-08-07T05:33:22.282Z,2.20
2022-08-07T05:35:52.849Z,3.88
2022-08-07T05:39:00.168Z,2.63
2022-08-07T05:41:14.262Z,2.78
2022-08-07T05:44:07.758Z,3.22
2022-08-07T05:46:38.239Z,2.50
2022-08-07T05:49:12.557Z,2.20
2022-08-07T05:51:46.464Z,2.25
2022-08-07T05:54:31.476Z,2.35
2022-08-07T05:57:11.994Z,2.30
2022-08-07T05:59:55.649Z,1.65
2022-08-07T06:02:30.733Z,2.33
2022-08-07T06:05:05.963Z,2.05
2022-08-07T06:08:29.647Z,2.42
2022-08-07T06:10:28.038Z,2.67
2022-08-07T06:12:57.068Z,2.22
2022-08-07T06:15:39.312Z,2.47
2022-08-07T06:18:14.040Z,3.92
2022-08-07T06:20:50.462Z,4.00
2022-08-07T06:24:38.779Z,2.50
2022-08-07T06:26:27.402Z,3.72
2022-08-07T06:29:01.455Z,2.35
2022-08-07T06:31:47.055Z,1.67
2022-08-07T06:34:21.583Z,1.77
2022-08-07T06:36:52.179Z,2.70
2022-08-07T06:40:15.952Z,3.92
2022-08-07T06:42:32.934Z,1.70
2022-08-07T06:45:18.063Z,2.65
2022-08-07T06:47:58.832Z,2.45
2022-08-07T06:50:43.410Z,2.55
2022-08-07T06:53:49.339Z,3.22
2022-08-07T06:56:07.537Z,2.25
2022-08-07T07:00:13.649Z,1.98
2022-08-07T07:01:43.914Z,2.28
2022-08-07T07:04:27.973Z,2.08
2022-08-07T07:07:10.806Z,2.58
2022-08-07T07:09:48.514Z,2.38
2022-08-07T07:12:30.666Z,1.92
2022-08-07T07:15:04.593Z,2.05
2022-08-07T07:17:52.159Z,2.42
2022-08-07T07:20:25.214Z,2.60
2022-08-07T07:24:08.822Z,2.45
2022-08-07T07:26:33.920Z,2.55
2022-08-07T07:28:48.747Z,3.58
2022-08-07T07:31:40.125Z,3.28
2022-08-07T07:34:17.878Z,1.73
2022-08-07T07:36:54.264Z,1.70
2022-08-07T07:39:25.628Z,3.38
2022-08-07T07:42:13.157Z,1.42
2022-08-07T07:44:49.715Z,1.85
2022-08-07T07:47:42.986Z,1.88
2022-08-07T07:50:34.442Z,2.25
2022-08-07T07:53:00.831Z,1.75
2022-08-07T07:55:37.704Z,2.13
2022-08-07T07:58:15.194Z,1.70
2022-08-07T08:00:53.572Z,1.02
2022-08-07T08:04:06.203Z,1.77
2022-08-07T08:06:14.093Z,1.83
2022-08-07T08:08:44.132Z,2.55
2022-08-07T08:11:16.560Z,1.67
2022-08-07T08:14:01.157Z,2.65
2022-08-07T08:16:35.525Z,1.38
2022-08-07T08:19:17.976Z,0.95
2022-08-07T08:25:18.359Z,1.55
2022-08-07T08:27:56.226Z,2.15
2022-08-07T08:30:29.296Z,2.20
2022-08-07T08:33:15.209Z,1.55
2022-08-07T08:35:50.661Z,1.48
2022-08-07T08:38:21.664Z,1.75
2022-08-07T08:40:57.490Z,0.93
2022-08-07T08:43:42.185Z,0.80
2022-08-07T08:46:18.036Z,1.30
2022-08-07T08:48:56.777Z,0.73
2022-08-07T08:52:12.395Z,1.40
2022-08-07T08:54:25.857Z,1.60
2022-08-07T08:56:55.861Z,2.58
2022-08-07T08:59:29.386Z,0.85
2022-08-07T09:02:08.900Z,1.45
2022-08-07T09:04:44.585Z,0.68
2022-08-07T09:07:24.399Z,1.05
2022-08-07T09:10:03.374Z,1.42
2022-08-07T09:12:53.759Z,0.90
2022-08-07T09:16:23.532Z,0.90
2022-08-07T09:18:53.007Z,0.80
2022-08-07T09:21:57.868Z,1.17
2022-08-07T09:24:59.605Z,1.30
2022-08-07T09:27:31.395Z,1.13
2022-08-07T09:30:20.777Z,1.20
2022-08-07T09:33:16.589Z,0.77
2022-08-07T09:36:04.169Z,1.77
2022-08-07T09:38:43.661Z,0.77
2022-08-07T09:41:36.371Z,0.52
2022-08-07T09:44:33.040Z,0.55
2022-08-07T09:47:51.624Z,0.95
2022-08-07T09:50:22.095Z,1.42
2022-08-07T09:53:01.687Z,1.33
2022-08-07T09:56:03.556Z,0.50
2022-08-07T09:59:14.059Z,1.00
2022-08-07T10:02:03.151Z,1.00
2022-08-07T10:04:52.997Z,0.73
2022-08-07T10:07:52.718Z,1.10
2022-08-07T10:11:07.642Z,1.52
2022-08-07T10:14:00.646Z,0.50
2022-08-07T10:16:48.386Z,1.23
2022-08-07T10:19:42.394Z,1.52
2022-08-07T10:22:36.825Z,1.00
2022-08-07T10:25:19.985Z,0.82
2022-08-07T10:28:04.998Z,1.15
2022-08-07T10:34:05.556Z,1.02
2022-08-07T10:36:30.191Z,1.00
2022-08-07T10:39:12.313Z,1.17
2022-08-07T10:41:53.038Z,0.90
2022-08-07T10:44:37.684Z,1.00
2022-08-07T10:47:26.830Z,1.95
2022-08-07T10:50:15.182Z,1.45
2022-08-07T10:52:55.255Z,1.15
2022-08-07T10:55:38.503Z,0.75
2022-08-07T10:58:18.837Z,0.65
2022-08-07T11:01:15.982Z,0.85
2022-08-07T11:03:52.956Z,0.80
2022-08-07T11:06:41.104Z,0.60
2022-08-07T11:10:06.962Z,0.40
2022-08-07T11:12:14.949Z,0.80
2022-08-07T11:15:14.552Z,1.40
2022-08-07T11:17:49.008Z,0.93
2022-08-07T11:20:24.370Z,1.02
2022-08-07T11:23:02.833Z,0.50
2022-08-07T11:25:42.566Z,2.13
2022-08-07T11:28:24.993Z,0.77
2022-08-07T11:30:59.245Z,1.13
2022-08-07T11:33:59.278Z,0.57
2022-08-07T11:36:49.627Z,1.02
2022-08-07T11:40:00.726Z,0.60
2022-08-07T11:42:29.813Z,0.90
2022-08-07T11:45:06.426Z,0.60
2022-08-07T11:47:56.206Z,1.25
2022-08-07T11:50:57.488Z,0.82
2022-08-07T11:53:43.031Z,1.35
2022-08-07T11:56:29.158Z,1.27
2022-08-07T12:00:08.922Z,0.80
2022-08-07T12:02:03.903Z,0.73
2022-08-07T12:05:03.213Z,1.27
2022-08-07T12:07:53.442Z,0.73
2022-08-07T12:10:28.835Z,0.70
2022-08-07T12:13:11.579Z,0.45
2022-08-07T12:16:06.526Z,0.73
2022-08-07T12:18:45.047Z,0.88
2022-08-07T12:22:36.902Z,0.73
2022-08-07T12:24:37.599Z,0.63
2022-08-07T12:27:14.992Z,1.02
2022-08-07T12:29:55.088Z,0.75
2022-08-07T12:32:30.991Z,0.40
2022-08-07T12:35:03.338Z,0.65
2022-08-07T12:38:10.081Z,0.43
2022-08-07T12:40:47.629Z,0.85
2022-08-07T12:44:02.861Z,0.88
2022-08-07T12:46:15.985Z,1.08
2022-08-07T12:49:09.922Z,0.70
2022-08-07T12:52:12.076Z,1.23
2022-08-07T12:54:54.537Z,2.00
2022-08-07T12:57:39.088Z,0.75
2022-08-07T13:00:33.005Z,1.30
2022-08-07T13:03:54.757Z,2.45
2022-08-07T13:06:30.821Z,1.35
2022-08-07T13:09:12.624Z,1.00
2022-08-07T13:12:15.109Z,1.15
2022-08-07T13:14:55.334Z,1.08
2022-08-07T13:17:40.988Z,1.40
2022-08-07T13:20:21.797Z,0.70
2022-08-07T13:23:09.816Z,1.10
2022-08-07T13:26:00.758Z,1.05
2022-08-07T13:28:35.154Z,0.47
2022-08-07T13:31:13.101Z,0.32
2022-08-07T13:34:33.313Z,0.50
2022-08-07T13:36:44.380Z,2.10
2022-08-07T13:39:49.216Z,1.25
2022-08-07T13:42:14.631Z,0.68
2022-08-07T13:45:11.550Z,0.70
2022-08-07T13:48:07.654Z,0.30
2022-08-07T13:50:44.307Z,1.50
2022-08-07T13:53:23.937Z,1.15
2022-08-07T13:55:54.781Z,1.33
2022-08-07T13:58:43.356Z,0.88
2022-08-07T14:01:26.326Z,0.60
2022-08-07T14:04:07.633Z,0.85
2022-08-07T14:06:40.132Z,0.90
2022-08-07T14:10:00.890Z,0.60
2022-08-07T14:12:10.494Z,0.90
2022-08-07T14:14:43.162Z,0.77
2022-08-07T14:18:13.082Z,0.63
2022-08-07T14:20:39.355Z,2.22
2022-08-07T14:23:05.937Z,0.73
2022-08-07T14:25:39.455Z,0.50
2022-08-07T14:28:16.441Z,0.45
2022-08-07T14:33:44.806Z,1.45
2022-08-07T14:36:15.042Z,1.05
2022-08-07T14:38:50.661Z,0.93
2022-08-07T14:41:33.953Z,0.93
2022-08-07T14:44:19.631Z,0.47
2022-08-07T14:47:08.510Z,0.93
2022-08-07T14:49:57.418Z,1.10
2022-08-07T14:52:28.996Z,0.70
2022-08-07T14:55:00.292Z,1.75
2022-08-07T14:57:58.025Z,2.07
2022-08-07T15:03:19.762Z,1.25
2022-08-07T15:05:55.026Z,0.60
2022-08-07T15:08:47.507Z,0.85
2022-08-07T15:11:50.763Z,1.63
2022-08-07T15:14:16.126Z,1.98
2022-08-07T15:22:31.325Z,1.73
2022-08-07T15:28:32.368Z,1.50
2022-08-07T15:31:05.297Z,1.55
2022-08-07T15:33:36.277Z,2.25
2022-08-07T15:36:07.612Z,1.48
2022-08-07T15:42:44.858Z,1.88
2022-08-07T15:50:03.830Z,1.55
2022-08-07T15:52:36.592Z,1.40
2022-08-07T15:55:11.606Z,1.65
2022-08-07T15:57:48.449Z,1.60
2022-08-07T16:00:31.062Z,1.40
2022-08-07T16:03:06.190Z,1.63
2022-08-07T16:05:39.381Z,1.60
2022-08-07T16:08:30.619Z,1.38
2022-08-07T16:11:04.145Z,1.10
2022-08-07T16:14:03.103Z,1.48
2022-08-07T16:16:49.921Z,1.15
2022-08-07T16:20:05.578Z,1.00
2022-08-07T16:23:09.888Z,0.85
2022-08-07T16:25:56.085Z,1.02
2022-08-07T16:30:07.682Z,0.88
2022-08-07T16:31:51.527Z,1.55
2022-08-07T16:34:34.024Z,3.15
2022-08-07T16:38:07.314Z,1.75
2022-08-07T16:41:22.271Z,1.45
2022-08-07T16:44:40.384Z,2.83
2022-08-07T16:47:56.577Z,1.00
2022-08-07T16:51:13.531Z,1.67
2022-08-07T16:54:06.242Z,1.58
2022-08-07T16:56:53.338Z,1.98
2022-08-07T16:59:47.101Z,1.02
2022-08-07T17:02:53.547Z,1.05
2022-08-07T17:06:19.413Z,1.27
2022-08-07T17:09:09.952Z,1.58
2022-08-07T17:12:01.392Z,1.70
2022-08-07T17:14:26.314Z,3.13
2022-08-07T17:16:58.725Z,1.15
2022-08-07T17:20:00.638Z,1.13
2022-08-07T17:22:30.200Z,1.40
2022-08-07T17:25:14.202Z,1.95
2022-08-07T17:27:56.067Z,2.63
2022-08-07T17:30:28.093Z,1.38
2022-08-07T17:34:10.082Z,1.42
2022-08-07T17:36:04.586Z,1.45
2022-08-07T17:38:51.888Z,2.05
2022-08-07T17:42:04.501Z,1.65
2022-08-07T17:44:34.074Z,0.95
2022-08-07T17:47:38.724Z,1.55
2022-08-07T17:50:16.545Z,2.65
2022-08-07T17:52:53.309Z,2.30
2022-08-07T17:56:01.271Z,1.33
2022-08-07T17:58:31.266Z,2.10
2022-08-07T18:01:20.572Z,3.22
2022-08-07T18:04:16.049Z,1.80
2022-08-07T18:06:57.962Z,2.30
2022-08-07T18:12:41.739Z,1.48
2022-08-07T18:15:16.520Z,2.08
2022-08-07T18:18:46.565Z,1.40
2022-08-07T18:21:11.869Z,2.05
2022-08-07T18:23:57.174Z,1.35
2022-08-07T18:26:45.869Z,1.98
2022-08-07T18:30:05.887Z,1.50
2022-08-07T18:32:25.774Z,1.35
2022-08-07T18:35:10.567Z,2.33
2022-08-07T18:38:55.357Z,2.08
2022-08-07T18:41:09.250Z,1.60
2022-08-07T18:43:57.683Z,1.17
2022-08-07T18:46:43.262Z,2.10
2022-08-07T18:50:30.245Z,0.95
2022-08-07T18:52:51.935Z,2.47
2022-08-07T18:55:43.068Z,1.17
2022-08-07T18:59:00.530Z,1.95
2022-08-07T19:02:32.701Z,2.50
2022-08-07T19:04:54.760Z,1.98
2022-08-07T19:07:35.131Z,1.55
2022-08-07T19:10:14.826Z,1.80
2022-08-07T19:12:58.116Z,1.85
2022-08-07T19:16:05.233Z,1.70
2022-08-07T19:18:36.934Z,1.30
2022-08-07T19:21:46.498Z,1.77
2022-08-07T19:24:11.239Z,2.78
2022-08-07T19:28:29.693Z,1.60
2022-08-07T19:31:00.909Z,2.05
2022-08-07T19:32:46.053Z,1.52
2022-08-07T19:35:18.316Z,2.08
2022-08-07T19:37:56.847Z,2.33
2022-08-07T19:40:31.772Z,2.17
2022-08-07T19:43:08.443Z,2.58
2022-08-07T19:46:05.128Z,2.63
2022-08-07T19:48:43.807Z,2.53
2022-08-07T19:51:20.302Z,1.88
2022-08-07T19:54:31.938Z,1.60
2022-08-07T19:58:02.348Z,2.03
2022-08-07T19:59:41.120Z,1.50
2022-08-07T20:02:19.138Z,1.42
2022-08-07T20:04:56.011Z,1.67
2022-08-07T20:07:47.122Z,2.13
2022-08-07T20:10:35.179Z,2.35
2022-08-07T20:13:23.091Z,2.13
2022-08-07T20:15:55.312Z,2.35
2022-08-07T20:18:33.596Z,1.80
2022-08-07T20:21:20.917Z,2.45
2022-08-07T20:23:54.813Z,2.17
2022-08-07T20:26:38.507Z,1.95
2022-08-07T20:29:46.651Z,2.92
2022-08-07T20:32:04.258Z,1.27
2022-08-07T20:34:50.041Z,2.15
2022-08-07T20:37:29.184Z,1.83
2022-08-07T20:40:02.791Z,2.88
2022-08-07T20:42:33.394Z,2.83
2022-08-07T20:45:02.125Z,1.90
2022-08-07T20:47:56.391Z,2.20
2022-08-07T20:50:29.062Z,2.40
2022-08-07T20:53:00.549Z,2.38
2022-08-07T20:55:32.205Z,2.60
2022-08-07T20:58:08.991Z,2.80
2022-08-07T21:00:44.384Z,2.45
2022-08-07T21:03:19.283Z,2.58
2022-08-07T21:05:58.310Z,2.92
2022-08-07T21:08:39.306Z,2.75
2022-08-07T21:11:14.456Z,2.80
2022-08-07T21:14:16.148Z,2.22
2022-08-07T21:16:56.895Z,2.78
2022-08-07T21:19:51.039Z,2.33
2022-08-07T21:22:31.570Z,3.00
2022-08-07T21:25:15.213Z,1.95
2022-08-07T21:28:01.915Z,2.60
2022-08-07T21:30:42.936Z,2.55
2022-08-07T21:33:17.687Z,3.40
2022-08-07T21:36:05.955Z,1.95
2022-08-07T21:38:49.776Z,2.42
2022-08-07T21:41:38.295Z,2.30
2022-08-07T21:44:29.883Z,2.38
2022-08-07T21:47:04.095Z,2.65
2022-08-07T21:50:00.896Z,3.22
2022-08-07T21:52:42.830Z,3.28
2022-08-07T21:55:28.328Z,2.72
2022-08-07T21:58:12.125Z,2.72
2022-08-07T22:00:54.290Z,1.83
2022-08-07T22:03:31.205Z,2.70
2022-08-07T22:06:04.914Z,2.17
2022-08-07T22:08:40.152Z,2.63
2022-08-07T22:11:17.555Z,2.55
2022-08-07T22:13:55.463Z,2.45
2022-08-07T22:16:42.301Z,2.63
2022-08-07T22:19:23.806Z,2.10
2022-08-07T22:22:18.154Z,2.03
2022-08-07T22:25:08.695Z,2.33
2022-08-07T22:28:03.040Z,3.83
2022-08-07T22:30:41.594Z,2.92
2022-08-07T22:33:15.103Z,2.80
2022-08-07T22:35:49.630Z,2.78
2022-08-07T22:38:26.837Z,3.78
2022-08-07T22:41:03.020Z,2.83
2022-08-07T22:43:40.282Z,2.95
2022-08-07T22:47:02.783Z,3.22
2022-08-07T22:49:51.906Z,3.20
2022-08-07T22:52:40.211Z,2.70
2022-08-07T22:55:31.907Z,2.70
2022-08-07T22:58:44.057Z,2.65
2022-08-07T23:01:49.976Z,3.13
2022-08-07T23:04:57.903Z,2.05
2022-08-07T23:07:45.780Z,2.67
2022-08-07T23:10:38.452Z,2.85
2022-08-07T23:13:29.448Z,2.30
2022-08-07T23:16:08.782Z,3.70
2022-08-07T23:19:17.036Z,2.90
2022-08-07T23:21:57.410Z,3.25
2022-08-07T23:24:38.747Z,2.83
2022-08-07T23:28:21.611Z,2.95
2022-08-07T23:30:45.778Z,2.38
2022-08-07T23:34:22.858Z,4.13
2022-08-07T23:36:43.938Z,2.70
2022-08-07T23:42:30.437Z,2.28
2022-08-07T23:45:33.479Z,2.88
2022-08-07T23:48:21.334Z,3.03
2022-08-07T23:51:00.841Z,3.72
2022-08-07T23:53:49.677Z,3.97
2022-08-07T23:56:27.890Z,3.90
